Time;durP1;ratioP1;P1;durP2;ratioP2;P2;SDS_P1;SDS_P2;PMS_P1;PMS_P2;Temp;Humidity;BMP_temperature;BMP_pressure;BME280_temperature;BME280_humidity;BME280_pressure;Samples;Min_cycle;Max_cycle;Signal;HPM_P1;HPM_P2
2022/01/12 00:01:19;;;;;;;;;;;;;;;-3.80;77.44;100443.03;5013471;28;832;-57
2022/01/12 00:03:45;;;;;;;;;;;;;;;-3.72;77.35;100455.88;5012532;28;844;-57
2022/01/12 00:06:13;;;;;;;;;;;;;;;-3.74;76.79;100434.56;5013401;28;801;-57
2022/01/12 00:08:40;;;;;;;;;;;;;;;-3.77;76.70;100466.78;5013296;28;1007;-55
2022/01/12 00:11:06;;;;;;;;;;;;;;;-3.75;76.79;100451.06;5013219;28;865;-56
2022/01/12 00:13:34;;;;;;;;;;;;;;;-3.76;76.04;100458.34;5013168;28;960;-56
2022/01/12 00:16:02;;;;;;;;;;;;;;;-3.76;76.46;100454.84;5013067;28;918;-55
2022/01/12 00:18:28;;;;;;;;;;;;;;;-3.81;76.39;100471.94;5013032;28;1894;-55
2022/01/12 00:20:55;;;;;;;;;;;;;;;-3.86;75.44;100433.38;5013200;28;827;-54
2022/01/12 00:23:22;;;;;;;;;;;;;;;-3.91;74.47;100453.16;5012997;28;878;-56
2022/01/12 00:26:13;;;;;;;;;;;;;;;-3.96;75.29;100472.94;5012990;28;865;-56
2022/01/12 00:34:08;;;;;;;;;;;;;;;-4.00;73.82;100492.72;5012805;28;1304;-56
2022/01/12 00:36:35;;;;;;;;;;;;;;;-4.04;73.86;100500.56;5012803;28;907;-55
2022/01/12 00:39:03;;;;;;;;;;;;;;;-4.03;74.46;100466.25;5012740;28;1969;-56
2022/01/12 00:41:30;;;;;;;;;;;;;;;-4.05;74.47;100466.56;5013416;28;789;-56
2022/01/12 00:43:59;;;;;;;;;;;;;;;-4.05;74.02;100474.66;5012781;28;836;-56
2022/01/12 00:46:30;;;;;;;;;;;;;;;-4.07;74.24;100443.66;5012904;28;919;-55
2022/01/12 00:48:57;;;;;;;;;;;;;;;-4.08;74.71;100450.94;5012616;28;844;-55
2022/01/12 00:51:26;;;;;;;;;;;;;;;-4.11;75.04;100459.63;5012590;28;879;-57
2022/01/12 00:53:53;;;;;;;;;;;;;;;-4.15;75.43;100453.19;5012703;28;868;-55
2022/01/12 00:56:21;;;;;;;;;;;;;;;-4.15;75.58;100461.28;4994906;28;952;-57
2022/01/12 00:58:48;;;;;;;;;;;;;;;-4.15;75.86;100463.97;5012465;28;1882;-56
2022/01/12 01:01:14;;;;;;;;;;;;;;;-4.14;75.33;100443.97;5012444;28;871;-56
2022/01/12 01:03:41;;;;;;;;;;;;;;;-4.14;75.40;100452.91;5012362;28;905;-56
2022/01/12 01:06:09;;;;;;;;;;;;;;;-4.14;75.28;100454.78;5012230;28;955;-55
2022/01/12 01:08:35;;;;;;;;;;;;;;;-4.14;75.69;100454.78;5012130;28;972;-56
2022/01/12 01:11:02;;;;;;;;;;;;;;;-4.15;75.74;100426.97;5012348;28;923;-55
2022/01/12 01:13:34;;;;;;;;;;;;;;;-4.15;74.79;100466.69;5012205;28;828;-55
2022/01/12 01:16:15;;;;;;;;;;;;;;;-4.16;74.71;100503.69;4995183;28;923;-55
2022/01/12 01:26:57;;;;;;;;;;;;;;;-4.14;74.96;100468.28;5012282;28;632;-55
2022/01/12 01:29:25;;;;;;;;;;;;;;;-4.10;75.08;100472.00;5011954;28;856;-56
2022/01/12 01:31:51;;;;;;;;;;;;;;;-4.11;75.07;100492.03;5011980;28;845;-55
2022/01/12 01:34:17;;;;;;;;;;;;;;;-4.10;75.51;100504.41;5011740;28;1378;-55
2022/01/12 01:36:52;;;;;;;;;;;;;;;-4.13;75.41;100505.81;5011923;28;887;-56
2022/01/12 01:39:19;;;;;;;;;;;;;;;-4.03;75.78;100504.91;5011792;28;2009;-55
2022/01/12 01:41:51;;;;;;;;;;;;;;;-4.02;75.83;100511.09;4994263;28;903;-57
2022/01/12 01:54:58;;;;;;;;;;;;;;;-4.09;75.46;100510.66;5011756;28;691;-55
2022/01/12 01:57:25;;;;;;;;;;;;;;;-4.09;75.46;100495.25;5011657;28;825;-55
2022/01/12 01:59:52;;;;;;;;;;;;;;;-3.99;75.54;100499.69;5011614;28;1883;-56
2022/01/12 02:02:18;;;;;;;;;;;;;;;-3.99;75.35;100511.34;4994091;28;892;-55
2022/01/12 02:04:45;;;;;;;;;;;;;;;-3.98;75.59;100507.53;5011601;28;900;-55
2022/01/12 02:07:14;;;;;;;;;;;;;;;-4.08;75.10;100502.22;5011505;28;829;-56
2022/01/12 02:09:41;;;;;;;;;;;;;;;-4.02;75.64;100495.69;5011492;28;889;-56
2022/01/12 02:12:08;;;;;;;;;;;;;;;-4.04;75.34;100502.47;5011502;28;863;-56
2022/01/12 02:14:35;;;;;;;;;;;;;;;-4.03;75.01;100493.25;5011815;28;848;-57
2022/01/12 02:17:07;;;;;;;;;;;;;;;-4.08;75.55;100480.63;5011808;28;808;-55
2022/01/12 02:40:58;;;;;;;;;;;;;;;-4.39;75.77;100510.66;5015330;28;674;-56
2022/01/12 02:43:43;;;;;;;;;;;;;;;-4.42;75.84;100515.81;5015084;28;903;-56
2022/01/12 02:54:41;;;;;;;;;;;;;;;-4.47;76.52;100554.47;4935175;29;1122;-56
2022/01/12 02:57:08;;;;;;;;;;;;;;;-4.52;75.90;100563.41;4998240;28;1059;-55
2022/01/12 02:59:34;;;;;;;;;;;;;;;-4.44;76.28;100537.69;5014656;28;1955;-55
2022/01/12 03:02:19;;;;;;;;;;;;;;;-4.41;76.28;100537.13;5014716;28;872;-55
2022/01/12 03:05:13;;;;;;;;;;;;;;;-4.48;75.32;100549.34;5014521;28;881;-56
2022/01/12 03:07:40;;;;;;;;;;;;;;;-4.45;75.57;100548.78;5014175;28;1691;-56
2022/01/12 03:10:07;;;;;;;;;;;;;;;-4.48;75.57;100542.06;5014484;28;833;-56
2022/01/12 03:12:44;;;;;;;;;;;;;;;-4.47;75.15;100537.47;5014435;28;1265;-55
2022/01/12 03:15:11;;;;;;;;;;;;;;;-4.52;75.52;100530.22;5014792;28;879;-56
2022/01/12 03:17:38;;;;;;;;;;;;;;;-4.51;75.59;100545.31;5014590;28;813;-55
2022/01/12 03:20:07;;;;;;;;;;;;;;;-4.60;75.20;100545.13;5014233;28;1890;-56
2022/01/12 03:22:33;;;;;;;;;;;;;;;-4.57;75.32;100527.56;5014159;28;901;-56
2022/01/12 03:24:59;;;;;;;;;;;;;;;-4.62;74.69;100535.72;5014127;28;860;-57
2022/01/12 03:27:27;;;;;;;;;;;;;;;-4.60;75.01;100520.84;5014505;28;836;-57
2022/01/12 03:29:55;;;;;;;;;;;;;;;-4.63;74.67;100559.19;4996552;28;833;-55
2022/01/12 03:32:31;;;;;;;;;;;;;;;-4.62;75.33;100551.91;5014147;28;915;-57
2022/01/12 03:35:05;;;;;;;;;;;;;;;-4.67;75.18;100558.13;5014176;28;964;-57
2022/01/12 04:08:20;;;;;;;;;;;;;;;-4.83;72.28;100602.47;4953125;29;826;-55
2022/01/12 04:10:51;;;;;;;;;;;;;;;-4.88;72.19;100592.53;4952947;29;947;-56
2022/01/12 04:13:18;;;;;;;;;;;;;;;-4.86;72.91;100579.59;4952869;29;849;-55
2022/01/12 04:15:47;;;;;;;;;;;;;;;-4.90;73.01;100591.22;4995979;28;1053;-56
2022/01/12 04:18:13;;;;;;;;;;;;;;;-4.89;72.50;100587.41;5013317;28;812;-55
2022/01/12 04:20:47;;;;;;;;;;;;;;;-4.95;72.52;100590.16;5013032;28;1937;-57
2022/01/12 04:23:17;;;;;;;;;;;;;;;-4.90;73.36;100596.63;5013223;28;899;-55
2022/01/12 04:25:48;;;;;;;;;;;;;;;-4.89;72.65;100595.50;5013086;28;833;-55
2022/01/12 04:28:15;;;;;;;;;;;;;;;-4.89;72.62;100628.66;5013051;28;899;-57
2022/01/12 04:30:42;;;;;;;;;;;;;;;-4.87;72.81;100607.63;5013013;28;832;-56
2022/01/12 04:33:10;;;;;;;;;;;;;;;-4.84;72.94;100609.78;5013021;28;1294;-56
2022/01/12 04:35:44;;;;;;;;;;;;;;;-4.84;72.35;100650.22;4995353;28;946;-57
2022/01/12 04:38:12;;;;;;;;;;;;;;;-4.80;73.20;100602.75;5013150;28;1008;-54
2022/01/12 04:40:38;;;;;;;;;;;;;;;-4.82;72.65;100629.19;5012802;28;1895;-57
2022/01/12 04:43:07;;;;;;;;;;;;;;;-4.79;72.86;100650.19;5012879;28;887;-56
2022/01/12 04:45:41;;;;;;;;;;;;;;;-4.80;72.75;100635.09;5012622;28;911;-57
2022/01/12 04:50:44;;;;;;;;;;;;;;;-4.70;73.47;100630.72;5012396;28;725;-55
2022/01/12 04:53:10;;;;;;;;;;;;;;;-4.70;73.59;100625.31;5012786;28;891;-55
2022/01/12 04:55:37;;;;;;;;;;;;;;;-4.72;73.41;100641.78;4995139;28;1225;-57
2022/01/12 04:58:05;;;;;;;;;;;;;;;-4.74;73.13;100642.09;5012773;28;876;-55
2022/01/12 05:00:32;;;;;;;;;;;;;;;-4.77;73.46;100664.22;5012467;28;1949;-54
2022/01/12 05:13:43;;;;;;;;;;;;;;;-4.79;72.54;100687.94;5012553;28;631;-53
2022/01/12 05:16:12;;;;;;;;;;;;;;;-4.76;72.67;100689.28;5012128;28;860;-53
2022/01/12 05:18:39;;;;;;;;;;;;;;;-4.80;71.82;100702.53;5012019;28;1906;-55
2022/01/12 05:21:07;;;;;;;;;;;;;;;-4.79;72.25;100697.94;5012412;28;916;-55
2022/01/12 05:23:33;;;;;;;;;;;;;;;-4.81;71.65;100714.41;5012069;28;844;-55
2022/01/12 05:26:01;;;;;;;;;;;;;;;-4.79;72.01;100700.63;5012034;28;809;-55
2022/01/12 05:28:27;;;;;;;;;;;;;;;-4.80;71.49;100696.31;5012152;28;895;-54
2022/01/12 05:30:54;;;;;;;;;;;;;;;-4.88;71.41;100705.81;5011893;28;911;-54
2022/01/12 05:33:23;;;;;;;;;;;;;;;-4.89;71.27;100719.56;5011627;28;1372;-54
2022/01/12 05:35:53;;;;;;;;;;;;;;;-4.84;71.24;100719.53;5012235;28;987;-53
2022/01/12 05:38:20;;;;;;;;;;;;;;;-4.87;71.23;100728.97;5011959;28;877;-54
2022/01/12 05:40:48;;;;;;;;;;;;;;;-4.88;70.88;100727.38;5012033;28;1911;-54
2022/01/12 05:43:17;;;;;;;;;;;;;;;-4.84;71.42;100747.31;5011831;28;824;-55
2022/01/12 05:45:45;;;;;;;;;;;;;;;-4.83;70.70;100735.44;4994158;28;885;-54
2022/01/12 05:50:41;;;;;;;;;;;;;;;-4.83;71.15;100767.00;5011684;28;834;-55
2022/01/12 05:53:08;;;;;;;;;;;;;;;-4.90;70.50;100758.41;5011751;28;904;-54
2022/01/12 05:55:34;;;;;;;;;;;;;;;-4.97;69.81;100782.94;4994165;28;828;-54
2022/01/12 05:58:01;;;;;;;;;;;;;;;-5.01;69.75;100754.94;5011739;28;871;-55
2022/01/12 06:00:28;;;;;;;;;;;;;;;-5.01;69.84;100771.13;5011638;28;1894;-56
2022/01/12 06:02:54;;;;;;;;;;;;;;;-4.99;70.37;100772.47;4995857;28;1164;-54
2022/01/12 06:05:22;;;;;;;;;;;;;;;-4.90;69.93;100783.47;5015650;28;923;-55
2022/01/12 06:07:49;;;;;;;;;;;;;;;-4.85;70.54;100778.06;5015568;28;939;-57
2022/01/12 06:10:17;;;;;;;;;;;;;;;-4.83;69.80;100772.41;5015584;28;888;-55
2022/01/12 06:12:44;;;;;;;;;;;;;;;-4.84;69.59;100795.88;5015611;28;832;-56
2022/01/12 06:15:11;;;;;;;;;;;;;;;-4.86;69.17;100779.16;5015443;28;923;-57
2022/01/12 06:17:37;;;;;;;;;;;;;;;-4.92;68.52;100796.44;5015402;28;915;-56
2022/01/12 06:20:05;;;;;;;;;;;;;;;-5.02;66.75;100839.59;5015414;28;1948;-56
2022/01/12 06:22:32;;;;;;;;;;;;;;;-5.07;67.07;100799.19;5015458;28;888;-54
2022/01/12 06:25:00;;;;;;;;;;;;;;;-5.06;67.55;100822.34;5015339;28;884;-56
2022/01/12 06:27:31;;;;;;;;;;;;;;;-5.10;66.50;100797.00;5015239;28;951;-55
2022/01/12 06:31:09;;;;;;;;;;;;;;;-5.16;66.15;100839.38;5015161;28;931;-57
2022/01/12 06:32:49;;;;;;;;;;;;;;;-5.18;66.33;100817.25;5014913;28;1406;-53
2022/01/12 06:35:16;;;;;;;;;;;;;;;-5.18;66.92;100791.09;5015383;28;929;-55
2022/01/12 06:37:42;;;;;;;;;;;;;;;-5.17;66.89;100806.19;5015156;28;832;-55
2022/01/12 06:40:09;;;;;;;;;;;;;;;-5.17;66.96;100810.78;5015011;28;1973;-55
2022/01/12 06:42:35;;;;;;;;;;;;;;;-5.10;67.07;100797.81;5014975;28;837;-57
2022/01/12 06:45:02;;;;;;;;;;;;;;;-5.01;67.84;100819.66;5015025;28;844;-57
2022/01/12 06:47:27;;;;;;;;;;;;;;;-5.01;67.51;100815.06;5014832;28;876;-57
2022/01/12 06:49:54;;;;;;;;;;;;;;;-4.90;67.83;100809.66;5014817;28;848;-57
2022/01/12 06:52:20;;;;;;;;;;;;;;;-4.89;66.78;100803.16;5014814;28;825;-55
2022/01/12 06:54:47;;;;;;;;;;;;;;;-4.99;67.02;100833.69;5014716;28;954;-53
2022/01/12 06:57:13;;;;;;;;;;;;;;;-4.99;68.00;100839.06;5014699;28;900;-56
2022/01/12 06:59:40;;;;;;;;;;;;;;;-5.03;68.89;100846.88;5014665;28;1886;-55
2022/01/12 07:02:06;;;;;;;;;;;;;;;-5.08;69.51;100833.41;5014668;28;908;-55
2022/01/12 07:04:33;;;;;;;;;;;;;;;-5.02;70.07;100845.00;5014696;28;844;-54
2022/01/12 07:07:00;;;;;;;;;;;;;;;-5.07;69.69;100834.22;5014744;28;911;-54
2022/01/12 07:09:26;;;;;;;;;;;;;;;-5.08;69.00;100828.00;5014532;28;907;-55
2022/01/12 07:11:53;;;;;;;;;;;;;;;-5.13;69.75;100844.19;5014821;28;849;-55
2022/01/12 07:14:19;;;;;;;;;;;;;;;-5.00;70.01;100856.31;5013954;28;852;-55
2022/01/12 07:16:46;;;;;;;;;;;;;;;-4.84;70.25;100847.13;5014200;28;896;-55
2022/01/12 07:19:13;;;;;;;;;;;;;;;-4.84;68.64;100844.41;5014301;28;1910;-54
2022/01/12 07:21:40;;;;;;;;;;;;;;;-4.85;68.93;100869.75;5014340;28;809;-55
2022/01/12 07:24:07;;;;;;;;;;;;;;;-4.73;69.19;100856.00;5014559;28;1159;-55
2022/01/12 07:26:34;;;;;;;;;;;;;;;-4.72;68.93;100861.09;5014089;28;1176;-55
2022/01/12 07:29:01;;;;;;;;;;;;;;;-4.78;69.57;100867.59;5014084;28;881;-55
2022/01/12 07:31:27;;;;;;;;;;;;;;;-4.76;69.88;100884.31;5014079;28;813;-55
2022/01/12 07:33:56;;;;;;;;;;;;;;;-4.81;70.66;100878.13;5013874;28;1247;-55
2022/01/12 07:36:23;;;;;;;;;;;;;;;-4.84;70.80;100884.03;5014075;28;845;-55
2022/01/12 07:38:55;;;;;;;;;;;;;;;-4.82;71.04;100885.41;5013788;28;1906;-54
2022/01/12 07:41:22;;;;;;;;;;;;;;;-4.85;71.70;100894.03;5013904;28;821;-55
2022/01/12 07:43:48;;;;;;;;;;;;;;;-4.69;71.60;100886.72;5013983;28;809;-55
2022/01/12 07:46:15;;;;;;;;;;;;;;;-4.73;71.17;100897.25;5013975;28;832;-55
2022/01/12 07:48:41;;;;;;;;;;;;;;;-4.51;70.85;100890.72;5013779;28;887;-55
2022/01/12 07:51:08;;;;;;;;;;;;;;;-4.44;71.03;100895.81;5013848;28;848;-55
2022/01/12 07:53:35;;;;;;;;;;;;;;;-4.57;71.02;100906.09;5013680;28;911;-53
2022/01/12 07:56:02;;;;;;;;;;;;;;;-4.59;71.03;100899.38;5013815;28;844;-54
2022/01/12 07:58:29;;;;;;;;;;;;;;;-4.71;71.33;100902.38;5013442;28;963;-53
2022/01/12 08:00:56;;;;;;;;;;;;;;;-4.76;71.91;100900.50;5013583;28;891;-53
2022/01/12 08:03:22;;;;;;;;;;;;;;;-4.72;72.47;100898.84;5013805;28;849;-54
2022/01/12 08:05:50;;;;;;;;;;;;;;;-4.78;71.88;100908.06;5013634;28;865;-55
2022/01/12 08:08:17;;;;;;;;;;;;;;;-4.76;72.35;100903.22;5013332;28;928;-55
2022/01/12 08:10:43;;;;;;;;;;;;;;;-4.72;72.82;100906.94;5013399;28;800;-56
2022/01/12 08:13:10;;;;;;;;;;;;;;;-4.79;70.80;100894.84;5013399;28;829;-53
2022/01/12 08:15:36;;;;;;;;;;;;;;;-4.88;70.55;100912.66;5013246;28;829;-55
2022/01/12 08:18:03;;;;;;;;;;;;;;;-4.80;70.08;100918.31;5013139;28;893;-55
2022/01/12 08:20:30;;;;;;;;;;;;;;;-4.72;69.89;100931.22;5013193;28;1890;-56
2022/01/12 08:22:57;;;;;;;;;;;;;;;-4.51;68.84;100928.50;5013017;28;932;-55
2022/01/12 08:25:24;;;;;;;;;;;;;;;-4.34;68.33;100920.09;5012508;28;840;-55
2022/01/12 08:27:51;;;;;;;;;;;;;;;-4.25;66.74;100933.81;5012951;28;881;-55
2022/01/12 08:30:21;;;;;;;;;;;;;;;-4.17;66.81;100933.25;5013037;28;903;-55
2022/01/12 08:32:48;;;;;;;;;;;;;;;-4.01;66.58;100933.97;5012814;28;1388;-55
2022/01/12 08:35:15;;;;;;;;;;;;;;;-4.10;66.69;100941.84;5013211;28;947;-55
2022/01/12 08:37:42;;;;;;;;;;;;;;;-4.08;66.29;100941.59;5012855;28;873;-56
2022/01/12 08:40:09;;;;;;;;;;;;;;;-4.20;65.98;100940.00;5012997;28;1978;-56
2022/01/12 08:42:36;;;;;;;;;;;;;;;-3.99;66.64;100932.66;5012779;28;938;-55
2022/01/12 08:45:03;;;;;;;;;;;;;;;-4.12;64.48;100947.56;5012688;28;927;-56
2022/01/12 08:47:30;;;;;;;;;;;;;;;-4.24;63.58;100933.56;5012637;28;967;-55
2022/01/12 08:49:57;;;;;;;;;;;;;;;-4.25;63.55;100931.13;5012643;28;876;-55
2022/01/12 08:52:25;;;;;;;;;;;;;;;-4.23;63.39;100916.25;5012780;28;872;-54
2022/01/12 08:54:51;;;;;;;;;;;;;;;-4.22;62.10;100923.28;5012831;28;813;-54
2022/01/12 08:57:17;;;;;;;;;;;;;;;-4.35;61.84;100918.47;5012784;28;849;-54
2022/01/12 08:59:44;;;;;;;;;;;;;;;-4.38;62.90;100911.72;4994918;28;1983;-56
2022/01/12 09:02:13;;;;;;;;;;;;;;;-4.40;62.63;100918.47;5012573;28;813;-55
2022/01/12 09:04:39;;;;;;;;;;;;;;;-4.47;62.55;100907.19;5012277;28;1058;-56
2022/01/12 09:07:07;;;;;;;;;;;;;;;-4.44;63.18;100917.41;5012433;28;853;-55
2022/01/12 09:09:35;;;;;;;;;;;;;;;-4.26;62.40;100929.50;5012413;28;896;-56
2022/01/12 09:12:03;;;;;;;;;;;;;;;-3.93;62.73;100915.31;5012272;28;1177;-56
2022/01/12 09:14:30;;;;;;;;;;;;;;;-3.88;61.96;100927.16;4994640;28;955;-56
2022/01/12 09:16:58;;;;;;;;;;;;;;;-3.84;62.02;100912.03;5012216;28;880;-55
2022/01/12 09:19:25;;;;;;;;;;;;;;;-3.80;61.91;100894.97;5012087;28;1898;-54
2022/01/12 09:21:52;;;;;;;;;;;;;;;-3.61;61.88;100916.75;5012151;28;833;-55
2022/01/12 09:24:19;;;;;;;;;;;;;;;-3.57;62.45;100909.69;5012087;28;911;-55
2022/01/12 09:26:46;;;;;;;;;;;;;;;-3.76;61.05;100925.75;5012074;28;829;-56
2022/01/12 09:29:12;;;;;;;;;;;;;;;-3.92;62.57;100922.34;5011998;28;860;-55
2022/01/12 09:31:39;;;;;;;;;;;;;;;-3.85;61.88;100905.81;5012013;28;840;-56
2022/01/12 09:34:05;;;;;;;;;;;;;;;-4.10;62.04;100901.34;5011801;28;1288;-56
2022/01/12 09:36:32;;;;;;;;;;;;;;;-3.93;60.75;100903.69;5011776;28;860;-55
2022/01/12 09:39:00;;;;;;;;;;;;;;;-3.54;61.38;100886.69;5011843;28;1906;-55
2022/01/12 09:41:27;;;;;;;;;;;;;;;-3.17;60.02;100888.84;5011795;28;865;-56
2022/01/12 09:43:54;;;;;;;;;;;;;;;-2.85;57.84;100887.47;5011785;28;903;-56
2022/01/12 09:46:26;;;;;;;;;;;;;;;-2.98;57.84;100877.34;5011711;28;940;-54
2022/01/12 09:48:53;;;;;;;;;;;;;;;-3.03;55.95;100883.59;5012022;28;974;-54
2022/01/12 09:51:19;;;;;;;;;;;;;;;-3.03;56.50;100889.00;5011820;28;820;-54
2022/01/12 09:53:45;;;;;;;;;;;;;;;-2.92;56.75;100878.91;5011623;28;1154;-55
2022/01/12 09:56:12;;;;;;;;;;;;;;;-2.76;55.93;100852.47;5011723;28;837;-54
2022/01/12 09:58:39;;;;;;;;;;;;;;;-2.62;56.46;100879.69;5011664;28;1886;-54
2022/01/12 10:01:05;;;;;;;;;;;;;;;-2.42;57.32;100867.81;5011907;28;848;-54
2022/01/12 10:03:32;;;;;;;;;;;;;;;-2.03;56.75;100872.19;5011661;28;856;-55
2022/01/12 10:06:00;;;;;;;;;;;;;;;-2.16;53.35;100896.16;5011614;28;892;-53
2022/01/12 10:08:34;;;;;;;;;;;;;;;-2.39;54.58;100859.91;5011553;28;923;-53
2022/01/12 10:11:03;;;;;;;;;;;;;;;-2.35;54.57;100860.13;5011468;28;987;-53
2022/01/12 10:13:30;;;;;;;;;;;;;;;-2.26;53.43;100872.75;5011706;28;868;-53
2022/01/12 10:15:56;;;;;;;;;;;;;;;-2.13;53.62;100859.59;5011425;28;948;-53
2022/01/12 10:18:22;;;;;;;;;;;;;;;-2.15;52.86;100862.59;5011533;28;801;-52
2022/01/12 10:20:50;;;;;;;;;;;;;;;-2.24;53.77;100871.63;5011472;28;1945;-54
2022/01/12 10:23:20;;;;;;;;;;;;;;;-2.11;55.53;100869.03;5011425;28;917;-55
2022/01/12 10:25:47;;;;;;;;;;;;;;;-2.02;53.55;100857.56;5011531;28;824;-55
2022/01/12 10:28:18;;;;;;;;;;;;;;;-2.10;54.61;100864.41;5011425;28;816;-54
2022/01/12 10:31:01;;;;;;;;;;;;;;;-1.91;52.38;100870.66;5011422;28;864;-55
2022/01/12 10:33:29;;;;;;;;;;;;;;;-1.83;52.95;100874.63;5011241;28;1326;-53
2022/01/12 10:35:58;;;;;;;;;;;;;;;-1.55;55.24;100883.69;4993924;28;1185;-53
2022/01/12 10:38:25;;;;;;;;;;;;;;;-1.81;52.97;100860.75;5011219;28;947;-55
2022/01/12 10:40:58;;;;;;;;;;;;;;;-1.89;55.60;100889.34;5011229;28;1910;-55
2022/01/12 10:43:27;;;;;;;;;;;;;;;-1.71;53.85;100872.28;5011187;28;837;-55
2022/01/12 10:45:54;;;;;;;;;;;;;;;-2.12;53.39;100878.25;5011068;28;845;-55
2022/01/12 10:48:20;;;;;;;;;;;;;;;-2.18;53.05;100884.03;5012172;28;829;-55
2022/01/12 10:50:57;;;;;;;;;;;;;;;-2.09;54.22;100876.84;5014844;28;852;-55
2022/01/12 10:53:31;;;;;;;;;;;;;;;-2.04;55.48;100876.00;5014882;28;813;-56
2022/01/12 10:56:03;;;;;;;;;;;;;;;-2.35;55.55;100870.97;5014713;28;868;-53
2022/01/12 10:58:30;;;;;;;;;;;;;;;-2.40;55.98;100871.81;5014963;28;841;-54
2022/01/12 11:00:57;;;;;;;;;;;;;;;-2.67;55.66;100881.34;4997029;28;1886;-53
2022/01/12 11:03:23;;;;;;;;;;;;;;;-2.46;56.00;100910.88;5014705;28;844;-53
2022/01/12 11:05:52;;;;;;;;;;;;;;;-2.58;55.99;100880.69;5014565;28;1049;-53
2022/01/12 11:08:19;;;;;;;;;;;;;;;-2.34;55.79;100888.84;5014466;28;801;-53
2022/01/12 11:10:45;;;;;;;;;;;;;;;-2.22;54.90;100891.91;5014757;28;837;-52
2022/01/12 11:13:12;;;;;;;;;;;;;;;-2.23;56.08;100898.44;5014371;28;832;-54
2022/01/12 11:15:39;;;;;;;;;;;;;;;-2.01;53.77;100859.16;5014737;28;853;-52
2022/01/12 11:18:07;;;;;;;;;;;;;;;-2.08;55.46;100886.59;5014428;28;903;-53
2022/01/12 11:20:34;;;;;;;;;;;;;;;-1.89;56.86;100878.50;5014183;28;1886;-52
2022/01/12 11:23:11;;;;;;;;;;;;;;;-1.44;56.19;100895.97;5014305;28;809;-53
2022/01/12 11:25:39;;;;;;;;;;;;;;;-1.79;53.99;100848.53;5014117;28;970;-54
2022/01/12 11:28:09;;;;;;;;;;;;;;;-1.78;55.96;100858.28;5014558;28;1011;-54
2022/01/12 11:30:36;;;;;;;;;;;;;;;-1.60;54.57;100867.50;5014560;28;793;-53
2022/01/12 11:33:06;;;;;;;;;;;;;;;-1.88;53.42;100866.53;5013994;28;1284;-56
2022/01/12 11:35:34;;;;;;;;;;;;;;;-1.79;55.13;100872.94;5014298;28;1112;-56
2022/01/12 11:38:01;;;;;;;;;;;;;;;-1.73;54.59;100885.31;5013996;28;946;-56
2022/01/12 11:40:34;;;;;;;;;;;;;;;-1.90;55.24;100855.19;5013846;28;1902;-56
2022/01/12 11:43:01;;;;;;;;;;;;;;;-2.00;53.01;100882.44;5014091;28;868;-54
2022/01/12 11:45:27;;;;;;;;;;;;;;;-2.02;55.62;100868.38;5014424;28;844;-56
2022/01/12 11:47:54;;;;;;;;;;;;;;;-1.91;53.38;100840.03;5014015;28;836;-53
2022/01/12 11:50:20;;;;;;;;;;;;;;;-2.19;54.12;100858.03;5014161;28;800;-53
2022/01/12 11:52:47;;;;;;;;;;;;;;;-2.13;54.86;100865.00;5013767;28;848;-53
2022/01/12 11:55:15;;;;;;;;;;;;;;;-1.93;54.56;100829.50;5013626;28;916;-55
2022/01/12 11:57:49;;;;;;;;;;;;;;;-1.89;54.70;100860.31;5013721;28;899;-55
2022/01/12 12:00:16;;;;;;;;;;;;;;;-1.75;54.82;100868.53;5013568;28;1894;-55
2022/01/12 12:02:46;;;;;;;;;;;;;;;-1.82;54.04;100859.94;4995970;28;943;-54
2022/01/12 12:05:14;;;;;;;;;;;;;;;-1.91;52.79;100859.00;5013717;28;939;-55
2022/01/12 12:07:45;;;;;;;;;;;;;;;-1.67;54.79;100846.16;5013453;28;926;-55
2022/01/12 12:10:12;;;;;;;;;;;;;;;-1.46;53.16;100846.66;5013441;28;824;-55
2022/01/12 12:12:39;;;;;;;;;;;;;;;-1.62;52.71;100853.44;4995877;28;904;-57
2022/01/12 12:15:07;;;;;;;;;;;;;;;-1.58;51.24;100843.63;5013362;28;817;-55
2022/01/12 12:17:35;;;;;;;;;;;;;;;-1.53;51.73;100835.41;5013326;28;840;-55
2022/01/12 12:20:04;;;;;;;;;;;;;;;-1.72;52.28;100856.31;5013201;28;1957;-53
2022/01/12 12:22:32;;;;;;;;;;;;;;;-1.67;52.65;100850.78;5013092;28;842;-55
2022/01/12 12:25:04;;;;;;;;;;;;;;;-1.68;51.93;100841.88;4995608;28;908;-55
2022/01/12 12:27:31;;;;;;;;;;;;;;;-1.64;51.68;100836.66;4995540;28;1040;-56
2022/01/12 12:29:58;;;;;;;;;;;;;;;-1.57;51.59;100833.56;5013106;28;868;-54
2022/01/12 12:32:37;;;;;;;;;;;;;;;-1.41;52.40;100845.75;5013074;28;923;-55
2022/01/12 12:35:06;;;;;;;;;;;;;;;-1.34;51.25;100845.41;4993481;28;1072;-57
2022/01/12 12:37:40;;;;;;;;;;;;;;;-1.38;52.21;100850.59;4993283;28;908;-57
2022/01/12 12:40:14;;;;;;;;;;;;;;;-1.32;52.19;100846.72;4993289;28;1942;-55
2022/01/12 12:42:41;;;;;;;;;;;;;;;-1.50;52.38;100842.91;4993243;28;826;-57
2022/01/12 12:45:08;;;;;;;;;;;;;;;-1.69;52.13;100834.81;4993191;28;920;-55
2022/01/12 12:47:35;;;;;;;;;;;;;;;-1.39;51.78;100854.41;4993252;28;876;-54
2022/01/12 12:50:05;;;;;;;;;;;;;;;-1.51;50.91;100864.94;4993227;28;884;-56
2022/01/12 12:52:34;;;;;;;;;;;;;;;-1.74;50.36;100855.78;4993047;28;836;-57
2022/01/12 12:55:01;;;;;;;;;;;;;;;-1.62;50.22;100882.44;4993280;28;923;-56
2022/01/12 12:57:28;;;;;;;;;;;;;;;-1.77;49.44;100810.28;4992955;28;817;-52
2022/01/12 13:00:06;;;;;;;;;;;;;;;-1.74;46.82;100880.19;4992690;28;1882;-55
2022/01/12 13:02:36;;;;;;;;;;;;;;;-1.75;48.59;100868.53;4992882;28;888;-56
2022/01/12 13:05:03;;;;;;;;;;;;;;;-1.67;48.50;100891.44;4992711;28;948;-55
2022/01/12 13:07:34;;;;;;;;;;;;;;;-1.56;48.36;100887.47;4992899;28;924;-55
2022/01/12 13:10:14;;;;;;;;;;;;;;;-1.42;47.66;100903.03;4992704;28;879;-57
2022/01/12 13:12:42;;;;;;;;;;;;;;;-1.66;46.54;100906.63;4992335;28;818;-56
2022/01/12 13:15:11;;;;;;;;;;;;;;;-1.62;46.69;100920.38;4992745;28;821;-56
2022/01/12 13:17:41;;;;;;;;;;;;;;;-1.60;45.43;100927.16;4992722;28;932;-56
2022/01/12 13:22:47;;;;;;;;;;;;;;;-2.20;46.96;100943.09;4992699;28;667;-57
2022/01/12 13:25:15;;;;;;;;;;;;;;;-2.29;47.08;100896.88;4975282;28;1094;-56
2022/01/12 13:27:43;;;;;;;;;;;;;;;-2.21;47.13;100933.38;4992327;28;931;-56
2022/01/12 13:30:11;;;;;;;;;;;;;;;-1.98;47.82;100931.75;4992554;28;845;-56
2022/01/12 13:32:37;;;;;;;;;;;;;;;-2.07;48.75;100942.38;4992437;28;1300;-57
2022/01/12 13:35:10;;;;;;;;;;;;;;;-2.09;48.02;100931.84;5012037;28;988;-55
2022/01/12 13:37:39;;;;;;;;;;;;;;;-2.16;48.69;100930.59;5011926;28;1163;-57
2022/01/12 13:40:10;;;;;;;;;;;;;;;-2.15;47.70;100962.00;5011760;28;1902;-56
2022/01/12 13:43:05;;;;;;;;;;;;;;;-2.38;48.90;100948.16;5011942;28;899;-56
2022/01/12 13:46:00;;;;;;;;;;;;;;;-2.36;48.66;100931.63;4994949;28;1343;-56
2022/01/12 13:48:29;;;;;;;;;;;;;;;-2.44;49.63;100964.75;5011030;28;1943;-55
2022/01/12 13:50:55;;;;;;;;;;;;;;;-2.55;50.59;100904.50;5011944;28;833;-53
2022/01/12 13:53:51;;;;;;;;;;;;;;;-2.60;50.64;100948.66;5011698;28;887;-56
2022/01/12 13:56:18;;;;;;;;;;;;;;;-2.72;51.55;100959.06;4995097;28;1472;-57
2022/01/12 13:58:45;;;;;;;;;;;;;;;-2.68;50.08;100955.50;5011597;28;1882;-57
2022/01/12 14:01:12;;;;;;;;;;;;;;;-2.60;50.37;100981.16;5011697;28;836;-57
2022/01/12 14:03:50;;;;;;;;;;;;;;;-2.59;50.92;100976.53;5011657;28;805;-57
2022/01/12 14:06:18;;;;;;;;;;;;;;;-2.64;50.91;100992.84;5011854;28;963;-57
2022/01/12 14:08:52;;;;;;;;;;;;;;;-2.71;49.90;100982.31;5011537;28;871;-56
2022/01/12 14:11:20;;;;;;;;;;;;;;;-2.78;52.42;100996.19;5011758;28;868;-57
2022/01/12 14:13:46;;;;;;;;;;;;;;;-3.05;51.51;100980.47;5011483;28;919;-56
2022/01/12 14:16:15;;;;;;;;;;;;;;;-3.09;52.38;100991.03;5011836;28;801;-57
2022/01/12 14:18:42;;;;;;;;;;;;;;;-2.99;52.44;100982.00;5011423;28;935;-56
2022/01/12 14:21:19;;;;;;;;;;;;;;;-3.15;53.10;100962.41;5011461;28;1939;-56
2022/01/12 14:23:46;;;;;;;;;;;;;;;-3.19;53.80;100999.22;5012988;28;947;-56
2022/01/12 14:26:20;;;;;;;;;;;;;;;-3.41;53.85;100996.91;5015451;28;883;-56
2022/01/12 14:28:47;;;;;;;;;;;;;;;-3.37;54.11;100992.56;5015305;28;861;-57
2022/01/12 14:31:13;;;;;;;;;;;;;;;-3.68;54.90;101002.72;5015352;28;888;-57
2022/01/12 14:33:40;;;;;;;;;;;;;;;-3.83;55.29;101006.31;4997537;28;1244;-57
2022/01/12 14:36:06;;;;;;;;;;;;;;;-3.90;57.00;101012.00;5015518;28;1082;-57
2022/01/12 14:38:32;;;;;;;;;;;;;;;-3.96;56.18;101013.09;5015111;28;852;-57
2022/01/12 14:40:59;;;;;;;;;;;;;;;-4.08;56.10;101036.91;5015038;28;1906;-58
2022/01/12 14:43:29;;;;;;;;;;;;;;;-4.35;57.21;101011.06;5015361;28;840;-57
2022/01/12 14:45:56;;;;;;;;;;;;;;;-4.48;58.75;101014.31;5015232;28;940;-57